createdAt,value
2018-03-06T06:52:21.450Z,4.27
2018-03-06T06:54:51.828Z,16.77
2018-03-06T06:57:21.089Z,39.10
2018-03-06T06:59:49.021Z,44.60
2018-03-06T07:02:25.002Z,49.87
2018-03-06T07:04:53.409Z,41.17
2018-03-06T07:07:21.550Z,36.57
2018-03-06T07:09:49.750Z,27.47
2018-03-06T07:12:18.053Z,25.37
2018-03-06T07:14:46.751Z,26.73
2018-03-06T07:17:15.163Z,25.43
2018-03-06T07:19:43.666Z,23.10
2018-03-06T07:22:11.885Z,25.30
2018-03-06T07:24:40.194Z,21.50
2018-03-06T07:27:08.450Z,22.63
2018-03-06T07:29:37.136Z,20.13
2018-03-06T07:32:13.237Z,22.03
2018-03-06T07:34:41.622Z,20.33
2018-03-06T07:37:10.286Z,19.03
2018-03-06T07:39:38.677Z,19.63
2018-03-06T07:42:06.943Z,18.20
2018-03-06T07:44:36.115Z,19.93
2018-03-06T07:47:04.409Z,20.23
2018-03-06T07:49:32.679Z,18.67
2018-03-06T07:52:02.189Z,19.70
2018-03-06T07:54:30.329Z,22.23
2018-03-06T07:56:58.812Z,19.60
2018-03-06T07:59:27.588Z,18.63
2018-03-06T08:01:55.978Z,20.00
2018-03-06T08:04:24.330Z,18.97
2018-03-06T08:06:52.743Z,17.67
2018-03-06T08:09:21.567Z,17.67
2018-03-06T08:11:49.853Z,18.23
2018-03-06T08:14:18.435Z,18.87
2018-03-06T08:16:46.668Z,21.13
2018-03-06T08:19:15.775Z,22.30
2018-03-06T08:21:43.946Z,18.40
2018-03-06T08:24:11.990Z,19.17
2018-03-06T08:26:41.120Z,16.27
2018-03-06T08:29:09.366Z,19.33
2018-03-06T08:31:38.084Z,17.83
2018-03-06T08:34:13.559Z,19.63
2018-03-06T08:36:41.635Z,20.27
2018-03-06T08:39:10.526Z,19.83
2018-03-06T08:41:38.954Z,22.50
2018-03-06T08:44:07.161Z,27.53
2018-03-06T08:46:35.199Z,27.27
2018-03-06T08:49:03.864Z,26.43
2018-03-06T08:51:32.759Z,26.73
2018-03-06T08:54:01.386Z,29.67
2018-03-06T08:56:29.567Z,34.03
2018-03-06T08:58:57.934Z,32.13
2018-03-06T09:01:26.042Z,30.70
2018-03-06T09:03:54.078Z,27.10
2018-03-06T09:06:22.341Z,38.73
2018-03-06T09:08:50.466Z,26.47
2018-03-06T09:11:18.825Z,25.97
2018-03-06T09:13:47.506Z,26.80
2018-03-06T09:16:15.972Z,26.93
2018-03-06T09:18:43.857Z,28.63
2018-03-06T09:21:12.208Z,27.87
2018-03-06T09:23:40.613Z,27.53
2018-03-06T09:26:08.636Z,27.17
2018-03-06T09:28:37.183Z,32.43
2018-03-06T09:31:05.337Z,29.93
2018-03-06T09:33:33.658Z,30.67
2018-03-06T09:36:12.326Z,27.93
2018-03-06T09:38:40.427Z,29.30
2018-03-06T09:41:08.752Z,27.97
2018-03-06T09:43:36.741Z,29.63
2018-03-06T09:46:04.806Z,26.77
2018-03-06T09:48:38.894Z,28.67
2018-03-06T09:51:07.150Z,30.20
2018-03-06T09:53:35.587Z,29.53
2018-03-06T09:56:03.764Z,27.63
2018-03-06T09:58:31.773Z,26.70
2018-03-06T10:01:00.101Z,30.13
2018-03-06T10:03:28.265Z,32.07
2018-03-06T10:05:56.487Z,31.17
2018-03-06T10:08:24.799Z,31.80
2018-03-06T10:10:53.038Z,29.57
2018-03-06T10:13:21.474Z,29.67
2018-03-06T10:15:49.938Z,30.60
2018-03-06T10:18:24.989Z,30.67
2018-03-06T10:20:54.312Z,32.73
2018-03-06T10:23:22.177Z,33.17
2018-03-06T10:25:52.693Z,31.60
2018-03-06T10:28:20.916Z,33.33
2018-03-06T10:30:49.076Z,32.53
2018-03-06T10:33:17.182Z,30.07
2018-03-06T10:35:45.240Z,29.40
2018-03-06T10:38:13.503Z,31.97
2018-03-06T10:40:41.903Z,30.93
2018-03-06T10:43:11.673Z,32.17
2018-03-06T10:45:39.633Z,32.67
2018-03-06T10:48:08.070Z,30.17
2018-03-06T10:50:37.232Z,31.83
2018-03-06T10:53:05.393Z,35.80
2018-03-06T10:55:33.515Z,34.03
2018-03-06T10:58:01.769Z,32.47
2018-03-06T11:00:30.425Z,38.17
2018-03-06T11:02:58.673Z,34.07
2018-03-06T11:05:26.964Z,35.47
2018-03-06T11:07:55.303Z,32.13
2018-03-06T11:10:24.422Z,34.43
2018-03-06T11:12:52.549Z,33.23
2018-03-06T11:15:21.944Z,36.93
2018-03-06T11:17:50.254Z,34.27
2018-03-06T11:20:18.455Z,36.07
2018-03-06T11:22:46.499Z,34.10
2018-03-06T11:25:14.549Z,36.87
2018-03-06T11:27:42.906Z,33.73
2018-03-06T11:30:10.958Z,33.00
2018-03-06T11:32:39.587Z,34.07
2018-03-06T11:35:07.625Z,37.40
2018-03-06T11:37:35.927Z,36.00
2018-03-06T11:40:12.690Z,37.87
2018-03-06T11:42:41.705Z,33.67
2018-03-06T11:45:10.097Z,37.93
2018-03-06T11:47:38.325Z,35.90
2018-03-06T11:50:07.478Z,35.17
2018-03-06T11:52:36.445Z,38.43
2018-03-06T11:55:06.001Z,37.10
2018-03-06T11:57:34.288Z,35.33
2018-03-06T12:00:02.341Z,37.33
2018-03-06T12:02:30.748Z,35.87
2018-03-06T12:04:59.529Z,33.47
2018-03-06T12:07:28.628Z,36.07
2018-03-06T12:09:57.635Z,32.43
2018-03-06T12:12:25.948Z,36.00
2018-03-06T12:14:53.971Z,38.37
2018-03-06T12:17:22.219Z,38.07
2018-03-06T12:19:50.519Z,42.03
2018-03-06T12:22:19.021Z,36.87
2018-03-06T12:24:47.146Z,36.83
2018-03-06T12:27:15.805Z,37.67
2018-03-06T12:29:43.805Z,38.40
2018-03-06T12:32:12.137Z,38.63
2018-03-06T12:34:40.428Z,36.87
2018-03-06T12:37:08.679Z,38.67
2018-03-06T12:39:36.760Z,36.07
2018-03-06T12:42:16.637Z,34.97
2018-03-06T12:44:44.888Z,33.93
2018-03-06T12:47:22.503Z,37.90
2018-03-06T12:49:50.885Z,39.33
2018-03-06T12:52:19.523Z,33.97
2018-03-06T12:54:47.664Z,35.87
2018-03-06T12:57:15.854Z,37.77
2018-03-06T12:59:43.882Z,35.13
2018-03-06T13:02:12.151Z,38.20
2018-03-06T13:04:40.722Z,39.00
2018-03-06T13:07:10.583Z,38.00
2018-03-06T13:09:39.041Z,34.60
2018-03-06T13:12:08.227Z,35.40
2018-03-06T13:14:36.498Z,36.03
2018-03-06T13:17:05.559Z,35.07
2018-03-06T13:19:34.962Z,37.47
2018-03-06T13:22:03.260Z,36.27
2018-03-06T13:24:31.343Z,34.63
2018-03-06T13:27:00.620Z,39.97
2018-03-06T13:29:28.599Z,31.97
2018-03-06T13:31:57.083Z,36.80
2018-03-06T13:34:26.027Z,34.83
2018-03-06T13:36:54.340Z,31.13
2018-03-06T13:39:22.469Z,33.77
2018-03-06T13:41:50.775Z,32.93
2018-03-06T13:44:19.541Z,33.70
2018-03-06T13:46:48.059Z,33.43
2018-03-06T13:49:21.258Z,32.33
2018-03-06T13:51:50.349Z,31.90
2018-03-06T13:54:19.450Z,30.77
2018-03-06T13:56:48.541Z,29.70
2018-03-06T13:59:17.428Z,29.33
2018-03-06T14:01:46.349Z,36.43
2018-03-06T14:04:14.392Z,36.03
2018-03-06T14:06:43.473Z,32.33
2018-03-06T14:09:11.463Z,33.47
2018-03-06T14:11:39.542Z,37.90
2018-03-06T14:14:08.041Z,30.97
2018-03-06T14:16:36.527Z,36.93
2018-03-06T14:19:04.611Z,33.07
2018-03-06T14:21:32.814Z,33.97
2018-03-06T14:24:01.207Z,33.17
2018-03-06T14:26:29.661Z,33.20
2018-03-06T14:28:57.631Z,32.50
2018-03-06T14:31:26.420Z,33.90
2018-03-06T14:33:54.683Z,32.73
2018-03-06T14:36:22.763Z,33.03
2018-03-06T14:38:50.993Z,33.93
2018-03-06T14:41:19.721Z,33.27
2018-03-06T14:43:49.059Z,29.53
2018-03-06T14:46:17.770Z,36.27
2018-03-06T14:48:45.738Z,30.77
2018-03-06T14:51:22.997Z,31.17
2018-03-06T14:53:51.123Z,35.03
2018-03-06T14:56:22.201Z,29.80
2018-03-06T14:58:57.416Z,31.70
2018-03-06T15:01:25.379Z,34.03
2018-03-06T15:03:54.267Z,34.83
2018-03-06T15:06:23.170Z,33.07
2018-03-06T15:09:08.566Z,36.53
2018-03-06T15:11:50.209Z,39.33
2018-03-06T15:14:18.288Z,37.63
2018-03-06T15:16:52.517Z,38.43
2018-03-06T15:19:21.592Z,38.93
2018-03-06T15:21:49.837Z,38.53
2018-03-06T15:24:17.950Z,37.73
2018-03-06T15:26:46.813Z,35.17
2018-03-06T15:29:16.235Z,37.63
2018-03-06T15:31:44.407Z,38.97
2018-03-06T15:34:13.562Z,34.00
2018-03-06T15:36:41.658Z,34.10
2018-03-06T15:39:11.190Z,35.03
2018-03-06T15:41:39.247Z,36.27
2018-03-06T15:44:07.485Z,37.17
2018-03-06T15:46:35.714Z,36.57
2018-03-06T15:49:04.157Z,36.60
2018-03-06T15:51:32.260Z,36.00
2018-03-06T15:54:00.516Z,34.33
2018-03-06T15:56:28.912Z,35.37
2018-03-06T15:58:57.071Z,36.77
2018-03-06T16:01:24.848Z,33.93
2018-03-06T16:03:52.797Z,36.73
2018-03-06T16:06:21.061Z,35.63
2018-03-06T16:08:53.862Z,35.30
2018-03-06T16:11:22.613Z,35.87
2018-03-06T16:16:24.133Z,35.10
2018-03-06T16:18:52.383Z,35.87
2018-03-06T16:21:20.690Z,35.47
2018-03-06T16:23:49.219Z,36.43
2018-03-06T16:26:17.501Z,33.67
2018-03-06T16:28:45.377Z,31.40
2018-03-06T16:31:14.261Z,35.10
2018-03-06T16:33:42.951Z,38.10
